createdAt,value
2018-11-28T06:53:58.920Z,43.23
2018-11-28T06:56:29.371Z,41.25
2018-11-28T06:58:58.106Z,47.90
2018-11-28T07:01:26.983Z,53.10
2018-11-28T07:03:55.576Z,42.93
2018-11-28T07:06:24.334Z,47.67
2018-11-28T07:08:53.185Z,44.63
2018-11-28T07:11:21.848Z,48.08
2018-11-28T07:13:50.551Z,45.95
2018-11-28T07:16:19.054Z,44.53
2018-11-28T07:19:09.309Z,43.50
2018-11-28T07:21:37.939Z,43.85
2018-11-28T07:24:07.320Z,38.13
2018-11-28T07:26:35.912Z,47.35
2018-11-28T07:29:05.124Z,40.03
2018-11-28T07:31:33.615Z,43.98
2018-11-28T07:34:02.358Z,52.10
2018-11-28T07:36:30.992Z,47.90
2018-11-28T07:38:59.671Z,45.92
2018-11-28T07:41:28.533Z,48.13
2018-11-28T07:43:57.105Z,43.23
2018-11-28T07:46:25.720Z,38.78
2018-11-28T07:48:54.362Z,40.20
2018-11-28T07:51:23.432Z,44.83
2018-11-28T07:53:52.098Z,36.63
2018-11-28T07:56:20.710Z,42.17
2018-11-28T07:58:49.252Z,43.30
2018-11-28T08:01:17.926Z,43.98
2018-11-28T08:03:46.415Z,37.15
2018-11-28T08:06:15.086Z,35.85
2018-11-28T08:08:43.735Z,35.80
2018-11-28T08:11:12.196Z,37.48
2018-11-28T08:13:40.850Z,35.30
2018-11-28T08:16:09.347Z,36.75
2018-11-28T08:18:37.989Z,31.82
2018-11-28T08:21:11.144Z,33.38
2018-11-28T08:23:39.720Z,35.08
2018-11-28T08:26:08.359Z,33.55
2018-11-28T08:28:37.098Z,36.63
2018-11-28T08:31:05.835Z,32.58
2018-11-28T08:33:34.350Z,36.28
2018-11-28T08:36:02.934Z,28.60
2018-11-28T08:38:31.578Z,25.62
2018-11-28T08:41:00.259Z,22.42
2018-11-28T08:43:28.802Z,34.80
2018-11-28T08:45:57.464Z,29.82
2018-11-28T08:48:26.063Z,25.95
2018-11-28T08:50:54.550Z,25.57
2018-11-28T08:53:23.154Z,25.85
2018-11-28T08:55:51.791Z,24.25
2018-11-28T08:58:20.369Z,30.97
2018-11-28T09:00:48.924Z,24.90
2018-11-28T09:03:17.340Z,28.10
2018-11-28T09:05:45.845Z,21.57
2018-11-28T09:08:14.381Z,19.27
2018-11-28T09:10:42.983Z,24.40
2018-11-28T09:13:11.489Z,17.82
2018-11-28T09:15:40.050Z,26.07
2018-11-28T09:18:08.451Z,23.42
2018-11-28T09:20:36.936Z,25.70
2018-11-28T09:23:06.473Z,19.52
2018-11-28T09:25:34.963Z,22.77
2018-11-28T09:28:03.579Z,23.22
2018-11-28T09:30:32.028Z,21.95
2018-11-28T09:33:00.580Z,20.43
2018-11-28T09:35:29.170Z,19.30
2018-11-28T09:37:57.676Z,22.58
2018-11-28T09:40:29.022Z,24.92
2018-11-28T09:42:58.434Z,22.77
2018-11-28T09:45:27.157Z,21.00
2018-11-28T09:47:55.664Z,18.30
2018-11-28T09:50:25.097Z,25.52
2018-11-28T09:52:53.737Z,19.67
2018-11-28T09:55:23.437Z,20.57
2018-11-28T09:57:51.912Z,24.35
2018-11-28T10:00:24.350Z,20.40
2018-11-28T10:03:00.051Z,23.00
2018-11-28T10:05:32.830Z,24.67
2018-11-28T10:08:01.441Z,20.37
2018-11-28T10:10:29.964Z,19.40
2018-11-28T10:12:58.526Z,23.50
2018-11-28T10:15:28.242Z,17.02
2018-11-28T10:17:56.761Z,20.80
2018-11-28T10:20:25.211Z,20.25
2018-11-28T10:22:53.762Z,20.12
2018-11-28T10:25:23.188Z,15.98
2018-11-28T10:27:58.709Z,17.05
2018-11-28T10:30:34.485Z,18.42
2018-11-28T10:33:03.000Z,16.80
2018-11-28T10:35:31.602Z,14.43
2018-11-28T10:38:00.175Z,17.52
2018-11-28T10:40:28.624Z,14.53
2018-11-28T10:42:58.224Z,16.93
2018-11-28T10:45:27.523Z,12.23
2018-11-28T10:47:56.170Z,12.47
2018-11-28T10:50:24.705Z,16.93
2018-11-28T10:52:53.214Z,15.28
2018-11-28T10:55:24.346Z,18.20
2018-11-28T10:58:22.084Z,15.20
2018-11-28T11:01:08.044Z,13.38
2018-11-28T11:03:54.019Z,10.00
2018-11-28T11:06:40.036Z,12.80
2018-11-28T11:09:27.193Z,13.65
2018-11-28T11:12:26.674Z,11.35
2018-11-28T11:14:55.179Z,11.38
2018-11-28T11:17:23.785Z,13.08
2018-11-28T11:19:52.380Z,9.80
2018-11-28T11:22:21.051Z,14.03
2018-11-28T11:24:49.644Z,11.70
2018-11-28T11:27:18.166Z,13.32
2018-11-28T11:29:46.696Z,10.32
2018-11-28T11:32:15.344Z,14.20
2018-11-28T11:34:43.859Z,10.90
2018-11-28T11:37:12.483Z,13.75
2018-11-28T11:39:41.054Z,9.55
2018-11-28T11:42:09.617Z,12.35
2018-11-28T11:44:38.172Z,14.15
2018-11-28T11:47:06.744Z,14.28
2018-11-28T11:49:35.267Z,13.88
2018-11-28T11:52:03.843Z,13.58
2018-11-28T11:54:32.395Z,12.85
2018-11-28T11:57:01.003Z,14.07
2018-11-28T11:59:29.530Z,10.45
2018-11-28T12:01:58.192Z,14.35
2018-11-28T12:04:26.701Z,14.58
2018-11-28T12:06:55.249Z,12.73
2018-11-28T12:09:23.866Z,11.15
2018-11-28T12:11:52.384Z,13.50
2018-11-28T12:14:21.035Z,10.48
2018-11-28T12:16:49.557Z,11.03
2018-11-28T12:19:18.084Z,12.88
2018-11-28T12:21:46.556Z,13.80
2018-11-28T12:24:15.070Z,11.95
2018-11-28T12:26:43.641Z,14.50
2018-11-28T12:29:12.093Z,11.08
2018-11-28T12:31:40.628Z,10.03
2018-11-28T12:34:09.212Z,15.08
2018-11-28T12:36:37.824Z,8.93
2018-11-28T12:39:09.364Z,15.40
2018-11-28T12:41:37.896Z,16.73
2018-11-28T12:44:06.458Z,10.08
2018-11-28T12:46:34.950Z,9.03
2018-11-28T12:49:03.492Z,13.03
2018-11-28T12:51:32.064Z,11.50
2018-11-28T12:54:00.756Z,14.07
2018-11-28T12:56:29.176Z,10.40
2018-11-28T12:58:57.813Z,10.23
2018-11-28T13:01:26.489Z,10.15
2018-11-28T13:03:54.935Z,10.32
2018-11-28T13:06:23.587Z,12.15
2018-11-28T13:08:52.137Z,16.12
2018-11-28T13:11:20.669Z,11.05
2018-11-28T13:13:49.370Z,11.28
2018-11-28T13:16:17.886Z,11.12
2018-11-28T13:18:46.402Z,9.85
2018-11-28T13:21:15.053Z,10.78
2018-11-28T13:23:43.506Z,11.20
2018-11-28T13:26:12.136Z,11.83
2018-11-28T13:28:40.698Z,9.58
2018-11-28T13:31:09.305Z,11.38
2018-11-28T13:33:37.912Z,14.80
2018-11-28T13:36:06.493Z,20.55
2018-11-28T13:38:35.102Z,14.60
2018-11-28T13:41:03.716Z,13.28
2018-11-28T13:43:32.254Z,10.08
2018-11-28T13:46:00.820Z,9.65
2018-11-28T13:48:29.328Z,8.40
2018-11-28T13:50:57.952Z,13.83
2018-11-28T13:53:29.509Z,10.03
2018-11-28T13:58:27.838Z,12.25
2018-11-28T14:00:56.413Z,10.63
2018-11-28T14:03:24.993Z,11.08
2018-11-28T14:05:53.767Z,10.63
2018-11-28T14:08:22.343Z,12.15
2018-11-28T14:10:51.122Z,13.83
2018-11-28T14:13:19.787Z,14.03
2018-11-28T14:15:48.356Z,13.85
2018-11-28T14:18:18.178Z,9.93
2018-11-28T14:20:46.862Z,10.70
2018-11-28T14:23:15.422Z,10.88
2018-11-28T14:25:44.074Z,10.30
2018-11-28T14:28:12.987Z,18.80
2018-11-28T14:30:42.268Z,13.53
2018-11-28T14:33:10.917Z,14.98
2018-11-28T14:35:39.898Z,12.43
2018-11-28T14:38:08.461Z,10.55
2018-11-28T14:40:37.046Z,12.35
2018-11-28T14:43:06.725Z,11.88
2018-11-28T14:45:35.561Z,14.75
2018-11-28T14:48:04.137Z,15.68
2018-11-28T14:50:32.938Z,11.90
2018-11-28T14:53:02.480Z,14.83
2018-11-28T14:55:32.638Z,13.98
2018-11-28T14:58:01.416Z,12.88
2018-11-28T15:00:49.406Z,16.37
2018-11-28T15:03:19.013Z,11.08
2018-11-28T15:06:09.623Z,13.62
2018-11-28T15:08:39.280Z,10.98
2018-11-28T15:11:09.796Z,14.85
2018-11-28T15:13:39.032Z,12.30
2018-11-28T15:16:07.718Z,14.95
2018-11-28T15:18:36.268Z,15.90
2018-11-28T15:21:05.112Z,13.35
2018-11-28T15:23:35.079Z,11.83
2018-11-28T15:26:04.151Z,12.88
2018-11-28T15:28:32.689Z,10.70
2018-11-28T15:31:01.258Z,15.32
2018-11-28T15:33:29.798Z,11.05
2018-11-28T15:35:58.416Z,15.15
2018-11-28T15:38:27.087Z,20.57
2018-11-28T15:40:55.522Z,15.03
2018-11-28T15:43:24.010Z,11.00
2018-11-28T15:45:52.532Z,18.05
2018-11-28T15:48:21.026Z,14.85
2018-11-28T15:50:49.627Z,12.73
2018-11-28T15:53:48.853Z,10.80
2018-11-28T15:56:28.870Z,24.07
2018-11-28T15:58:57.431Z,13.32
2018-11-28T16:01:25.925Z,16.48
2018-11-28T16:03:54.721Z,14.18
2018-11-28T16:06:23.228Z,15.32
2018-11-28T16:08:54.387Z,15.05
2018-11-28T16:11:23.815Z,15.65
2018-11-28T16:13:52.467Z,12.23
2018-11-28T16:16:22.511Z,15.70
2018-11-28T16:18:50.002Z,14.45
2018-11-28T16:21:18.640Z,11.15
2018-11-28T16:23:47.370Z,10.75
2018-11-28T16:26:16.121Z,10.55
2018-11-28T16:28:55.690Z,11.43
2018-11-28T16:31:24.392Z,14.35
2018-11-28T16:33:52.970Z,14.05
2018-11-28T16:36:21.714Z,17.52
2018-11-28T16:38:50.415Z,13.32
2018-11-28T16:41:19.007Z,13.60
2018-11-28T16:43:47.603Z,17.80
2018-11-28T16:46:16.330Z,12.90
2018-11-28T16:48:44.869Z,17.65
2018-11-28T16:51:13.354Z,19.77
2018-11-28T16:53:41.966Z,18.80
2018-11-28T16:56:10.421Z,20.52
2018-11-28T16:58:38.963Z,18.35
2018-11-28T17:01:07.480Z,19.65
2018-11-28T17:03:35.925Z,17.87
2018-11-28T17:06:04.471Z,18.35
2018-11-28T17:08:32.984Z,17.02
2018-11-28T17:11:01.435Z,20.55
2018-11-28T17:13:29.923Z,26.15
2018-11-28T17:15:58.476Z,18.57
2018-11-28T17:18:27.036Z,16.90
2018-11-28T17:20:55.945Z,14.35
2018-11-28T17:23:25.012Z,19.12
2018-11-28T17:25:53.798Z,15.65
2018-11-28T17:28:22.417Z,16.40
2018-11-28T17:30:51.149Z,16.42
2018-11-28T17:33:19.656Z,18.30
2018-11-28T17:35:48.193Z,12.53
2018-11-28T17:38:16.845Z,17.30
2018-11-28T17:40:45.586Z,14.50
2018-11-28T17:43:14.104Z,16.57
2018-11-28T17:45:42.627Z,16.00
2018-11-28T17:48:11.297Z,13.25
2018-11-28T17:50:39.882Z,21.33
2018-11-28T17:53:09.768Z,16.55
2018-11-28T17:55:40.381Z,16.27
2018-11-28T17:58:08.918Z,13.68
2018-11-28T18:00:37.618Z,18.23
2018-11-28T18:03:06.248Z,17.70
2018-11-28T18:05:34.765Z,22.27
2018-11-28T18:08:03.385Z,17.82
2018-11-28T18:10:31.947Z,14.87
2018-11-28T18:13:10.234Z,16.37
2018-11-28T18:15:39.371Z,23.32
2018-11-28T18:18:09.224Z,19.75
2018-11-28T18:20:37.842Z,17.23
2018-11-28T18:23:10.423Z,21.65
2018-11-28T18:25:40.240Z,15.58
2018-11-28T18:28:09.189Z,21.80
2018-11-28T18:30:38.161Z,20.70
2018-11-28T18:33:07.583Z,17.67
2018-11-28T18:35:36.168Z,26.27
2018-11-28T18:38:04.722Z,22.75
2018-11-28T18:40:33.299Z,18.60
2018-11-28T18:43:02.003Z,20.43
2018-11-28T18:45:31.829Z,23.45
2018-11-28T18:48:00.387Z,19.15
2018-11-28T18:50:28.944Z,17.55
2018-11-28T18:52:57.496Z,23.10
2018-11-28T18:55:25.989Z,21.20
2018-11-28T18:57:55.814Z,25.60
2018-11-28T19:00:27.503Z,27.10
2018-11-28T19:02:56.533Z,22.75
2018-11-28T19:05:25.382Z,19.48
2018-11-28T19:07:54.050Z,22.50
2018-11-28T19:10:26.276Z,24.72
2018-11-28T19:13:43.788Z,22.50
2018-11-28T19:16:12.756Z,20.08
2018-11-28T19:18:41.466Z,31.73
2018-11-28T19:21:10.234Z,25.05
2018-11-28T19:23:39.044Z,26.23
2018-11-28T19:26:07.630Z,25.37
2018-11-28T19:28:36.339Z,28.83
2018-11-28T19:31:05.203Z,30.00
2018-11-28T19:33:34.175Z,26.80
2018-11-28T19:36:03.090Z,29.82
2018-11-28T19:38:32.722Z,26.20
2018-11-28T19:41:03.621Z,29.23
2018-11-28T19:43:32.344Z,29.50
2018-11-28T19:46:01.190Z,23.95
2018-11-28T19:48:30.049Z,30.75
2018-11-28T19:51:01.073Z,32.28
2018-11-28T19:53:29.915Z,26.57
2018-11-28T19:56:00.674Z,30.60
2018-11-28T19:58:29.472Z,28.47
2018-11-28T20:00:58.334Z,36.50
2018-11-28T20:03:27.116Z,30.72
2018-11-28T20:05:56.782Z,30.48
2018-11-28T20:08:27.182Z,34.85
2018-11-28T20:11:01.619Z,29.25
2018-11-28T20:16:25.309Z,30.40
2018-11-28T20:18:59.643Z,30.52
2018-11-28T20:21:28.683Z,29.90
2018-11-28T20:23:57.690Z,34.05
2018-11-28T20:26:26.410Z,33.05
2018-11-28T20:28:56.811Z,39.23
2018-11-28T20:31:26.101Z,36.03
2018-11-28T20:33:58.922Z,37.38
2018-11-28T20:36:29.081Z,35.58
2018-11-28T20:38:58.106Z,37.88
2018-11-28T20:41:26.834Z,38.00
2018-11-28T20:43:55.759Z,37.10
2018-11-28T20:46:24.518Z,37.33
2018-11-28T20:48:53.568Z,38.90
2018-11-28T20:51:22.325Z,36.35
2018-11-28T20:53:51.079Z,39.83
2018-11-28T20:56:19.952Z,36.17
2018-11-28T20:58:48.813Z,45.63
2018-11-28T21:01:18.369Z,37.70
2018-11-28T21:03:47.474Z,42.27
2018-11-28T21:06:16.584Z,50.35
2018-11-28T21:08:45.565Z,52.10
2018-11-28T21:11:14.628Z,49.67
2018-11-28T21:13:43.835Z,71.12
2018-11-28T21:16:13.005Z,63.50
2018-11-28T21:18:42.984Z,40.00
2018-11-28T21:21:12.814Z,43.95
2018-11-28T21:23:42.491Z,36.83
2018-11-28T21:26:11.379Z,43.33
2018-11-28T21:28:40.473Z,51.42
2018-11-28T21:31:09.382Z,43.08
2018-11-28T21:33:38.151Z,44.95
2018-11-28T21:36:08.732Z,46.73
2018-11-28T21:38:42.172Z,48.00
2018-11-28T21:41:12.737Z,53.10
2018-11-28T21:43:53.200Z,43.63
2018-11-28T21:46:22.039Z,49.90
2018-11-28T21:48:53.207Z,54.67
2018-11-28T21:58:31.681Z,52.03
2018-11-28T22:02:33.491Z,48.78
2018-11-28T22:05:20.783Z,48.25
2018-11-28T22:08:05.249Z,52.27
2018-11-28T22:10:35.371Z,43.28
2018-11-28T22:13:12.259Z,47.65
2018-11-28T22:16:16.466Z,47.13
2018-11-28T22:18:57.200Z,38.23
2018-11-28T22:50:20.126Z,46.00
2018-11-28T22:52:49.077Z,45.90
2018-11-28T22:55:18.336Z,46.45
2018-11-28T22:57:47.712Z,47.83
2018-11-28T23:00:28.006Z,52.78
2018-11-28T23:03:01.468Z,53.00
2018-11-28T23:05:39.242Z,50.63
2018-11-28T23:08:09.360Z,52.08
2018-11-28T23:10:38.786Z,54.58
2018-11-28T23:13:08.772Z,52.48
2018-11-28T23:15:37.693Z,50.78
2018-11-28T23:18:07.733Z,51.37
2018-11-28T23:20:36.650Z,53.15
2018-11-28T23:23:06.421Z,51.13
2018-11-28T23:25:35.609Z,51.20
2018-11-28T23:28:04.909Z,49.25
2018-11-28T23:30:33.951Z,56.00
2018-11-28T23:33:05.012Z,67.67
2018-11-28T23:35:34.537Z,56.85
2018-11-28T23:38:05.619Z,54.60
2018-11-28T23:40:35.426Z,52.25
2018-11-28T23:43:09.571Z,59.70
2018-11-28T23:45:45.125Z,54.00
2018-11-28T23:48:14.233Z,60.08
2018-11-28T23:50:42.960Z,50.12
2018-11-28T23:53:11.699Z,69.77
2018-11-28T23:55:43.244Z,59.53
2018-11-28T23:58:14.116Z,58.23
